Time;durP1;ratioP1;P1;durP2;ratioP2;P2;SDS_P1;SDS_P2;PMS_P1;PMS_P2;Temp;Humidity;BMP_temperature;BMP_pressure;BME280_temperature;BME280_humidity;BME280_pressure;Samples;Min_cycle;Max_cycle;Signal;HPM_P1;HPM_P2
2022/11/18 00:01:05;;;;;;;;;;;6.60;84.00;;;-151.14;100.00;62537.16;5094441;28;20093;-82
2022/11/18 00:03:33;;;;;;;;;;;6.50;83.90;;;-151.14;100.00;62537.16;5112418;28;19928;-81
2022/11/18 00:06:01;;;;;;;;;;;6.60;84.00;;;-151.14;100.00;62537.16;5077333;28;19926;-81
2022/11/18 00:08:29;;;;;;;;;;;6.60;84.00;;;-151.14;100.00;62537.16;5094399;28;19919;-81
2022/11/18 00:10:58;;;;;;;;;;;6.60;84.00;;;-151.14;100.00;62537.16;5094378;28;19920;-81
2022/11/18 00:16:12;;;;;;;;;;;6.60;84.00;;;-151.14;100.00;62537.16;5077130;28;19920;-81
2022/11/18 00:18:40;;;;;;;;;;;6.50;83.90;;;-151.14;100.00;62537.16;5077453;28;20097;-81
2022/11/18 00:21:08;;;;;;;;;;;6.50;83.90;;;-151.14;100.00;62537.16;5094237;28;19919;-82
2022/11/18 00:23:36;;;;;;;;;;;6.60;84.00;;;-151.14;100.00;62537.16;5077184;28;19926;-81
2022/11/18 00:26:06;;;;;;;;;;;6.60;84.00;;;-151.14;100.00;62537.16;5110716;28;20208;-81
2022/11/18 00:28:35;;;;;;;;;;;6.60;84.00;;;-151.14;100.00;62537.16;5111100;28;19920;-81
2022/11/18 00:31:03;;;;;;;;;;;6.50;84.00;;;-151.14;100.00;62537.16;5112019;28;20127;-81
2022/11/18 00:33:31;;;;;;;;;;;6.60;84.00;;;-151.14;100.00;62537.16;5093755;28;19919;-81
2022/11/18 00:35:59;;;;;;;;;;;6.60;84.00;;;-151.14;100.00;62537.16;5093834;28;19920;-81
2022/11/18 00:38:27;;;;;;;;;;;6.60;84.00;;;-151.14;100.00;62537.16;5093498;28;19920;-81
2022/11/18 00:41:01;;;;;;;;;;;6.50;84.00;;;-151.14;100.00;62537.16;5111017;28;19920;-81
2022/11/18 00:43:30;;;;;;;;;;;6.50;84.10;;;-151.14;100.00;62537.16;5093899;28;20185;-81
2022/11/18 00:45:58;;;;;;;;;;;6.60;84.00;;;-151.14;100.00;62537.16;5093529;28;19920;-81
2022/11/18 00:48:26;;;;;;;;;;;6.50;84.00;;;-151.14;100.00;62537.16;5093689;28;19942;-81
2022/11/18 00:50:54;;;;;;;;;;;6.50;84.00;;;-151.14;100.00;62537.16;5093843;28;20118;-81
2022/11/18 00:53:23;;;;;;;;;;;6.60;84.00;;;-151.14;100.00;62537.16;5076655;28;19919;-81
2022/11/18 00:55:51;;;;;;;;;;;6.50;84.20;;;-151.14;100.00;62537.16;5110426;28;20111;-81
2022/11/18 00:58:19;;;;;;;;;;;6.50;84.10;;;-151.14;100.00;62537.16;5093598;28;19926;-81
2022/11/18 01:00:51;;;;;;;;;;;6.50;84.10;;;-151.14;100.00;62537.16;5076847;28;19919;-82
2022/11/18 01:03:19;;;;;;;;;;;6.60;84.20;;;-151.14;100.00;62537.16;5076591;28;19926;-81
2022/11/18 01:05:47;;;;;;;;;;;6.60;84.10;;;-151.14;100.00;62537.16;5093242;28;20208;-82
2022/11/18 01:08:15;;;;;;;;;;;6.50;84.00;;;-151.14;100.00;62537.16;5111442;28;19931;-81
2022/11/18 01:10:42;;;;;;;;;;;6.50;84.00;;;-151.14;100.00;62537.16;5093535;28;19923;-81
2022/11/18 01:13:18;;;;;;;;;;;6.50;84.00;;;-151.14;100.00;62537.16;5093463;28;19920;-81
2022/11/18 01:15:48;;;;;;;;;;;6.50;84.00;;;-151.14;100.00;62537.16;5076463;28;19926;-81
2022/11/18 01:18:17;;;;;;;;;;;6.60;84.00;;;-151.14;100.00;62537.16;5093378;28;20230;-81
2022/11/18 01:20:45;;;;;;;;;;;6.60;84.00;;;-151.14;100.00;62537.16;5076615;28;19926;-82
2022/11/18 01:23:13;;;;;;;;;;;6.50;84.00;;;-151.14;100.00;62537.16;5076443;28;19919;-82
2022/11/18 01:25:42;;;;;;;;;;;6.50;84.00;;;-151.14;100.00;62537.16;5092865;28;19919;-81
2022/11/18 01:28:10;;;;;;;;;;;6.50;84.00;;;-151.14;100.00;62537.16;5093217;28;19920;-81
2022/11/18 01:30:38;;;;;;;;;;;6.50;84.10;;;-151.14;100.00;62537.16;5093131;28;20216;-81
2022/11/18 01:33:07;;;;;;;;;;;6.50;84.00;;;-151.14;100.00;62537.16;5111306;28;19920;-81
2022/11/18 01:35:35;;;;;;;;;;;6.50;84.00;;;-151.14;100.00;62537.16;5092609;28;19926;-81
2022/11/18 01:38:03;;;;;;;;;;;6.50;84.90;;;-151.14;100.00;62537.16;5076345;28;20146;-81
2022/11/18 01:40:31;;;;;;;;;;;6.50;84.10;;;-151.14;100.00;62537.16;5110263;28;20343;-81
2022/11/18 01:42:59;;;;;;;;;;;6.50;84.00;;;-151.14;100.00;62537.16;5093196;28;19927;-81
2022/11/18 01:45:30;;;;;;;;;;;6.50;84.10;;;-151.14;100.00;62537.16;5092595;28;19920;-81
2022/11/18 01:48:01;;;;;;;;;;;6.50;84.20;;;-151.14;100.00;62537.16;5092983;28;20226;-81
2022/11/18 01:50:30;;;;;;;;;;;6.50;84.10;;;-151.14;100.00;62537.16;5076283;28;19928;-81
2022/11/18 01:53:00;;;;;;;;;;;6.50;84.00;;;-151.14;100.00;62537.16;5096647;28;19927;-81
2022/11/18 01:55:30;;;;;;;;;;;6.50;84.10;;;-151.14;100.00;62537.16;5095951;28;20211;-81
2022/11/18 01:58:01;;;;;;;;;;;6.50;84.10;;;-151.14;100.00;62537.16;5096316;28;19942;-81
2022/11/18 02:00:29;;;;;;;;;;;6.50;84.10;;;-151.14;100.00;62537.16;5079582;28;19927;-82
2022/11/18 02:02:57;;;;;;;;;;;6.50;84.10;;;-151.14;100.00;62537.16;5079643;28;19919;-82
2022/11/18 02:05:25;;;;;;;;;;;6.50;84.20;;;-151.14;100.00;62537.16;5075591;28;19920;-81
2022/11/18 02:07:55;;;;;;;;;;;6.50;84.20;;;-151.14;100.00;62537.16;5075981;28;19920;-81
2022/11/18 02:10:23;;;;;;;;;;;6.60;84.20;;;-151.14;100.00;62537.16;5076047;28;19920;-81
2022/11/18 02:12:53;;;;;;;;;;;6.50;84.20;;;-151.14;100.00;62537.16;5076001;28;19920;-81
2022/11/18 02:15:28;;;;;;;;;;;6.60;84.20;;;-151.14;100.00;62537.16;5075538;28;20143;-81
2022/11/18 02:17:59;;;;;;;;;;;6.50;84.10;;;-151.14;100.00;62537.16;5076004;28;20325;-81
2022/11/18 02:20:34;;;;;;;;;;;6.50;84.10;;;-151.14;100.00;62537.16;5076002;28;19920;-82
2022/11/18 02:23:44;;;;;;;;;;;6.50;84.10;;;-151.14;100.00;62537.16;5059156;28;19926;-81
2022/11/18 02:26:50;;;;;;;;;;;6.50;84.10;;;-151.14;100.00;62537.16;5096301;28;19920;-81
2022/11/18 02:29:20;;;;;;;;;;;6.50;84.10;;;-151.14;100.00;62537.16;5055758;28;20127;-81
2022/11/18 02:31:51;;;;;;;;;;;6.60;84.20;;;-151.14;100.00;62537.16;5114092;28;19919;-81
2022/11/18 02:34:25;;;;;;;;;;;6.50;84.20;;;-151.14;100.00;62537.16;5095570;28;19926;-81
2022/11/18 02:36:55;;;;;;;;;;;6.60;84.20;;;-151.14;100.00;62537.16;5095667;28;19920;-81
2022/11/18 02:39:24;;;;;;;;;;;6.50;84.20;;;-151.14;100.00;62537.16;5095759;28;19926;-81
2022/11/18 02:41:53;;;;;;;;;;;6.60;84.20;;;-151.14;100.00;62537.16;5112765;28;19920;-81
2022/11/18 02:44:22;;;;;;;;;;;6.50;84.20;;;-151.14;100.00;62537.16;5095424;28;19931;-81
2022/11/18 02:46:53;;;;;;;;;;;6.50;84.20;;;-151.14;100.00;62537.16;5095301;28;20115;-82
2022/11/18 02:49:23;;;;;;;;;;;6.50;84.20;;;-151.14;100.00;62537.16;5078774;28;19920;-82
2022/11/18 02:51:51;;;;;;;;;;;6.50;84.20;;;-151.14;100.00;62537.16;5095452;28;20116;-82
2022/11/18 02:54:19;;;;;;;;;;;6.60;84.20;;;-151.14;100.00;62537.16;5078505;28;19920;-81
2022/11/18 02:56:46;;;;;;;;;;;6.50;84.30;;;-151.14;100.00;62537.16;5095309;28;19920;-82
2022/11/18 02:59:18;;;;;;;;;;;6.50;84.30;;;-151.14;100.00;62537.16;5095387;28;19920;-82
2022/11/18 03:01:47;;;;;;;;;;;6.60;84.40;;;-151.14;100.00;62537.16;5078603;28;19920;-82
2022/11/18 03:04:15;;;;;;;;;;;6.50;84.40;;;-151.14;100.00;62537.16;5095269;28;19926;-82
2022/11/18 03:06:45;;;;;;;;;;;6.50;84.40;;;-151.14;100.00;62537.16;5077876;28;19924;-81
2022/11/18 03:09:15;;;;;;;;;;;6.50;84.40;;;-151.14;100.00;62537.16;5112392;28;19926;-81
2022/11/18 03:11:47;;;;;;;;;;;6.60;84.40;;;-151.14;100.00;62537.16;5111976;28;19919;-82
2022/11/18 03:14:20;;;;;;;;;;;6.50;84.50;;;-151.14;100.00;62537.16;5112032;28;19927;-81
2022/11/18 03:16:58;;;;;;;;;;;6.50;84.50;;;-151.14;100.00;62537.16;5094941;28;19926;-82
2022/11/18 03:19:33;;;;;;;;;;;6.60;84.40;;;-151.14;100.00;62537.16;5095110;28;19926;-82
2022/11/18 03:22:05;;;;;;;;;;;6.50;84.40;;;-151.14;100.00;62537.16;5113312;28;20204;-82
2022/11/18 03:24:33;;;;;;;;;;;6.50;84.40;;;-151.14;100.00;62537.16;5095008;28;20207;-81
2022/11/18 03:27:07;;;;;;;;;;;6.50;84.40;;;-151.14;100.00;62537.16;5094708;28;20219;-81
2022/11/18 03:29:36;;;;;;;;;;;6.50;84.50;;;-151.14;100.00;62537.16;5112091;28;19920;-81
2022/11/18 03:32:06;;;;;;;;;;;6.50;84.40;;;-151.14;100.00;62537.16;5111988;28;19919;-81
2022/11/18 03:34:38;;;;;;;;;;;6.50;84.40;;;-151.14;100.00;62537.16;5094725;28;19927;-81
2022/11/18 03:37:08;;;;;;;;;;;6.50;84.40;;;-151.14;100.00;62537.16;5094934;28;19920;-82
2022/11/18 03:39:37;;;;;;;;;;;6.50;84.40;;;-151.14;100.00;62537.16;5094803;28;19926;-81
2022/11/18 03:42:06;;;;;;;;;;;6.50;84.50;;;-151.14;100.00;62537.16;5094883;28;19920;-82
2022/11/18 03:44:36;;;;;;;;;;;6.50;84.40;;;-151.14;100.00;62537.16;5094593;28;20101;-81
2022/11/18 03:47:07;;;;;;;;;;;6.50;84.50;;;-151.14;100.00;62537.16;5079370;28;20115;-81
2022/11/18 03:49:37;;;;;;;;;;;6.50;84.40;;;-151.14;100.00;62537.16;5078008;28;20119;-81
2022/11/18 03:52:07;;;;;;;;;;;6.50;84.40;;;-151.14;100.00;62537.16;5094805;28;19934;-82
2022/11/18 03:54:35;;;;;;;;;;;6.50;84.50;;;-151.14;100.00;62537.16;5112433;28;19920;-81
2022/11/18 03:57:05;;;;;;;;;;;6.50;84.50;;;-151.14;100.00;62537.16;5094201;28;19919;-81
2022/11/18 03:59:35;;;;;;;;;;;6.50;84.40;;;-151.14;100.00;62537.16;5094469;28;19926;-81
2022/11/18 04:02:04;;;;;;;;;;;6.50;84.50;;;-151.14;100.00;62537.16;5077806;28;19926;-81
2022/11/18 04:04:34;;;;;;;;;;;6.50;84.50;;;-151.14;100.00;62537.16;5077563;28;19926;-82
2022/11/18 04:07:03;;;;;;;;;;;6.50;84.50;;;-151.14;100.00;62537.16;5077216;28;19920;-81
2022/11/18 04:09:34;;;;;;;;;;;6.50;84.50;;;-151.14;100.00;62537.16;5077470;28;19934;-82
2022/11/18 04:12:03;;;;;;;;;;;6.50;84.50;;;-151.14;100.00;62537.16;5094477;28;19945;-81
2022/11/18 04:14:31;;;;;;;;;;;6.50;84.50;;;-151.14;100.00;62537.16;5076695;28;19926;-81
2022/11/18 04:16:59;;;;;;;;;;;6.50;84.50;;;-151.14;100.00;62537.16;5093901;28;20216;-81
2022/11/18 04:19:28;;;;;;;;;;;6.50;84.50;;;-151.14;100.00;62537.16;5077484;28;20246;-81
2022/11/18 04:21:57;;;;;;;;;;;6.50;84.50;;;-151.14;100.00;62537.16;5094182;28;19926;-81
2022/11/18 04:24:25;;;;;;;;;;;6.50;84.50;;;-151.14;100.00;62537.16;5094184;28;20115;-82
2022/11/18 04:26:53;;;;;;;;;;;6.50;84.50;;;-151.14;100.00;62537.16;5093956;28;19920;-82
2022/11/18 04:29:21;;;;;;;;;;;6.50;84.60;;;-151.14;100.00;62537.16;5094157;28;19920;-81
2022/11/18 04:31:49;;;;;;;;;;;6.50;84.50;;;-151.14;100.00;62537.16;5077233;28;19920;-81
2022/11/18 04:34:17;;;;;;;;;;;6.50;84.50;;;-151.14;100.00;62537.16;5093730;28;19920;-81
2022/11/18 04:36:45;;;;;;;;;;;6.50;84.60;;;-151.14;100.00;62537.16;5111757;28;20136;-82
2022/11/18 04:39:14;;;;;;;;;;;6.50;84.60;;;-151.14;100.00;62537.16;5093925;28;19920;-82
2022/11/18 04:41:57;;;;;;;;;;;6.50;84.60;;;-151.14;100.00;62537.16;5077150;28;19920;-81
2022/11/18 04:44:26;;;;;;;;;;;6.50;84.60;;;-151.14;100.00;62537.16;5076922;28;19920;-81
2022/11/18 04:46:54;;;;;;;;;;;6.50;84.70;;;-151.14;100.00;62537.16;5076781;28;19920;-82
2022/11/18 04:49:22;;;;;;;;;;;6.50;84.60;;;-151.14;100.00;62537.16;5077151;28;20093;-81
2022/11/18 04:51:50;;;;;;;;;;;6.50;84.70;;;-151.14;100.00;62537.16;5093814;28;20261;-81
2022/11/18 04:54:19;;;;;;;;;;;6.50;84.60;;;-151.14;100.00;62537.16;5093369;28;19926;-82
2022/11/18 04:56:47;;;;;;;;;;;6.50;85.50;;;-151.14;100.00;62537.16;5076659;28;19920;-82
2022/11/18 04:59:16;;;;;;;;;;;6.50;84.60;;;-151.14;100.00;62537.16;5076842;28;19930;-82
2022/11/18 05:01:44;;;;;;;;;;;6.50;84.60;;;-151.14;100.00;62537.16;5093672;28;19920;-81
2022/11/18 05:04:12;;;;;;;;;;;6.50;84.70;;;-151.14;100.00;62537.16;5076821;28;19926;-81
2022/11/18 05:06:40;;;;;;;;;;;6.50;84.60;;;-151.14;100.00;62537.16;5093423;28;20219;-81
2022/11/18 05:09:08;;;;;;;;;;;6.50;84.70;;;-151.14;100.00;62537.16;5076658;28;19920;-81
2022/11/18 05:14:25;;;;;;;;;;;6.50;84.70;;;-151.14;100.00;62537.16;5076546;28;20234;-81
2022/11/18 05:16:53;;;;;;;;;;;6.50;84.70;;;-151.14;100.00;62537.16;5093088;28;20215;-81
2022/11/18 05:19:21;;;;;;;;;;;6.50;84.70;;;-151.14;100.00;62537.16;5111534;28;19921;-82
2022/11/18 05:21:49;;;;;;;;;;;6.50;84.70;;;-151.14;100.00;62537.16;5093423;28;19919;-82
2022/11/18 05:24:17;;;;;;;;;;;6.50;84.70;;;-151.14;100.00;62537.16;5076378;28;19934;-82
2022/11/18 05:26:46;;;;;;;;;;;6.50;84.70;;;-151.14;100.00;62537.16;5095061;28;19946;-81
2022/11/18 05:29:14;;;;;;;;;;;6.50;84.70;;;-151.14;100.00;62537.16;5097202;28;19920;-81
2022/11/18 05:31:42;;;;;;;;;;;6.50;84.70;;;-151.14;100.00;62537.16;5080122;28;19926;-81
2022/11/18 05:34:10;;;;;;;;;;;6.50;84.70;;;-151.14;100.00;62537.16;5096534;28;19926;-82
2022/11/18 05:36:38;;;;;;;;;;;6.50;84.70;;;-151.14;100.00;62537.16;5096479;28;19920;-81
2022/11/18 05:39:06;;;;;;;;;;;6.50;84.70;;;-151.14;100.00;62537.16;5096816;28;19926;-82
2022/11/18 05:44:20;;;;;;;;;;;6.50;84.70;;;-151.14;100.00;62537.16;5096637;28;20212;-81
2022/11/18 05:46:48;;;;;;;;;;;6.50;84.80;;;-151.14;100.00;62537.16;5079451;28;19919;-82
2022/11/18 05:49:16;;;;;;;;;;;6.50;84.70;;;-151.14;100.00;62537.16;5079783;28;19942;-81
2022/11/18 05:51:44;;;;;;;;;;;6.50;84.70;;;-151.14;100.00;62537.16;5114693;28;20452;-81
2022/11/18 05:54:12;;;;;;;;;;;6.50;84.80;;;-151.14;100.00;62537.16;5079536;28;19920;-81
2022/11/18 05:56:43;;;;;;;;;;;6.50;84.70;;;-151.14;100.00;62537.16;5096243;28;19920;-81
2022/11/18 05:59:11;;;;;;;;;;;6.50;84.70;;;-151.14;100.00;62537.16;5096565;28;19919;-81
2022/11/18 06:01:42;;;;;;;;;;;6.50;84.70;;;-151.14;100.00;62537.16;5079710;28;19926;-81
2022/11/18 06:04:13;;;;;;;;;;;6.50;84.70;;;-151.14;100.00;62537.16;5092228;28;19920;-82
2022/11/18 06:06:41;;;;;;;;;;;6.50;84.60;;;-151.14;100.00;62537.16;5092556;28;19920;-82
2022/11/18 06:09:09;;;;;;;;;;;6.50;84.70;;;-151.14;100.00;62537.16;5059303;28;19981;-81
2022/11/18 06:11:38;;;;;;;;;;;6.50;84.70;;;-151.14;100.00;62537.16;5094008;28;20212;-81
2022/11/18 06:14:07;;;;;;;;;;;6.50;84.60;;;-151.14;100.00;62537.16;5059350;28;19926;-81
2022/11/18 06:16:35;;;;;;;;;;;6.50;84.60;;;-151.14;100.00;62537.16;5075553;28;19920;-82
2022/11/18 06:19:04;;;;;;;;;;;6.50;84.50;;;-151.14;100.00;62537.16;5059398;28;19920;-81
2022/11/18 06:21:33;;;;;;;;;;;6.50;84.50;;;-151.14;100.00;62537.16;5059363;28;19920;-81
2022/11/18 06:24:01;;;;;;;;;;;6.50;84.50;;;-151.14;100.00;62537.16;5058966;28;20119;-81
2022/11/18 06:26:29;;;;;;;;;;;6.50;84.50;;;-151.14;100.00;62537.16;5092245;28;19920;-82
2022/11/18 06:28:57;;;;;;;;;;;6.50;84.50;;;-151.14;100.00;62537.16;5059031;28;19927;-81
2022/11/18 06:31:25;;;;;;;;;;;6.50;84.50;;;-151.14;100.00;62537.16;5075795;28;20017;-81
2022/11/18 06:33:53;;;;;;;;;;;6.50;84.50;;;-151.14;100.00;62537.16;5075676;28;19927;-81
2022/11/18 06:36:22;;;;;;;;;;;6.50;84.50;;;-151.14;100.00;62537.16;5092797;28;19920;-81
2022/11/18 06:38:50;;;;;;;;;;;6.50;84.50;;;-151.14;100.00;62537.16;5093621;28;19920;-81
2022/11/18 06:41:18;;;;;;;;;;;6.50;84.60;;;-151.14;100.00;62537.16;5075654;28;19926;-81
2022/11/18 06:43:45;;;;;;;;;;;6.50;84.60;;;-151.14;100.00;62537.16;5093430;28;19920;-81
2022/11/18 06:48:59;;;;;;;;;;;6.60;84.30;;;-151.14;100.00;62537.16;5075389;28;20111;-81
2022/11/18 06:51:29;;;;;;;;;;;6.60;84.10;;;-151.14;100.00;62537.16;5109328;28;19920;-82
2022/11/18 06:53:56;;;;;;;;;;;6.70;84.00;;;-151.14;100.00;62537.16;5109073;28;20208;-82
2022/11/18 06:56:24;;;;;;;;;;;6.70;83.90;;;-151.14;100.00;62537.16;5091831;28;19920;-82
2022/11/18 06:58:53;;;;;;;;;;;6.80;83.70;;;-151.14;100.00;62537.16;5058701;28;19926;-81
2022/11/18 07:01:21;;;;;;;;;;;6.80;83.40;;;-151.14;100.00;62537.16;5092264;28;19927;-81
2022/11/18 07:03:49;;;;;;;;;;;6.80;83.30;;;-151.14;100.00;62537.16;5058505;28;19920;-81
2022/11/18 07:06:18;;;;;;;;;;;6.80;83.30;;;-151.14;100.00;62537.16;5092899;28;19920;-81
2022/11/18 07:08:47;;;;;;;;;;;6.80;83.20;;;-151.14;100.00;62537.16;5092983;28;19927;-81
2022/11/18 07:11:16;;;;;;;;;;;6.80;83.00;;;-151.14;100.00;62537.16;5058510;28;19920;-82
2022/11/18 07:13:44;;;;;;;;;;;6.80;83.10;;;-151.14;100.00;62537.16;5108708;28;19920;-82
2022/11/18 07:16:13;;;;;;;;;;;6.80;83.10;;;-151.14;100.00;62537.16;5092713;28;19942;-81
2022/11/18 07:18:42;;;;;;;;;;;6.80;83.00;;;-151.14;100.00;62537.16;5074862;28;19927;-81
2022/11/18 07:21:11;;;;;;;;;;;6.80;83.10;;;-151.14;100.00;62537.16;5091744;28;19930;-81
2022/11/18 07:23:39;;;;;;;;;;;6.80;83.10;;;-151.14;100.00;62537.16;5074537;28;19928;-81
2022/11/18 07:26:08;;;;;;;;;;;6.80;83.10;;;-151.14;100.00;62537.16;5058058;28;20123;-81
2022/11/18 07:28:36;;;;;;;;;;;6.90;83.20;;;-151.14;100.00;62537.16;5074807;28;20246;-82
2022/11/18 07:31:05;;;;;;;;;;;6.90;83.20;;;-151.14;100.00;62537.16;5074879;28;19927;-81
2022/11/18 07:33:33;;;;;;;;;;;6.90;83.20;;;-151.14;100.00;62537.16;5108515;28;19928;-81
2022/11/18 07:36:01;;;;;;;;;;;6.90;83.10;;;-151.14;100.00;62537.16;5091039;28;19942;-81
2022/11/18 07:38:29;;;;;;;;;;;6.90;83.10;;;-151.14;100.00;62537.16;5092506;28;19920;-81
2022/11/18 07:41:03;;;;;;;;;;;6.90;82.90;;;-151.14;100.00;62537.16;5074720;28;19942;-81
2022/11/18 07:43:33;;;;;;;;;;;6.90;82.80;;;-151.14;100.00;62537.16;5090987;28;19920;-81
2022/11/18 07:46:12;;;;;;;;;;;6.90;82.90;;;-151.14;100.00;62537.16;5108133;28;19926;-81
2022/11/18 07:48:40;;;;;;;;;;;6.90;82.90;;;-151.14;100.00;62537.16;5057161;28;19927;-81
2022/11/18 07:51:08;;;;;;;;;;;6.90;83.00;;;-151.14;100.00;62537.16;5080012;28;19920;-81
2022/11/18 07:53:36;;;;;;;;;;;6.90;83.10;;;-151.14;100.00;62537.16;5111657;28;19920;-81
2022/11/18 07:56:04;;;;;;;;;;;6.90;83.00;;;-151.14;100.00;62537.16;5111250;28;19920;-81
2022/11/18 07:58:33;;;;;;;;;;;6.90;83.10;;;-151.14;100.00;62537.16;5094481;28;19920;-81
2022/11/18 08:01:07;;;;;;;;;;;6.90;83.00;;;-151.14;100.00;62537.16;5094546;28;20212;-82
2022/11/18 08:03:35;;;;;;;;;;;6.90;82.90;;;-151.14;100.00;62537.16;5112589;28;19920;-81
2022/11/18 08:06:03;;;;;;;;;;;6.90;82.90;;;-151.14;100.00;62537.16;5077152;28;19920;-81
2022/11/18 08:08:31;;;;;;;;;;;6.90;82.90;;;-151.14;100.00;62537.16;5094281;28;19942;-81
2022/11/18 08:11:00;;;;;;;;;;;6.90;82.90;;;-151.14;100.00;62537.16;5094452;28;19920;-81
2022/11/18 08:13:29;;;;;;;;;;;6.90;83.00;;;-151.14;100.00;62537.16;5094342;28;20127;-81
2022/11/18 08:15:58;;;;;;;;;;;6.90;82.90;;;-151.14;100.00;62537.16;5077235;28;19919;-81
2022/11/18 08:18:27;;;;;;;;;;;6.90;83.10;;;-151.14;100.00;62537.16;5111209;28;19926;-81
2022/11/18 08:20:55;;;;;;;;;;;6.90;83.10;;;-151.14;100.00;62537.16;5094271;28;20136;-81
2022/11/18 08:23:23;;;;;;;;;;;7.00;83.10;;;-151.14;100.00;62537.16;5077274;28;19920;-81
2022/11/18 08:25:51;;;;;;;;;;;7.00;83.10;;;-151.14;100.00;62537.16;5077077;28;19919;-81
2022/11/18 08:28:19;;;;;;;;;;;7.00;83.00;;;-151.14;100.00;62537.16;5094017;28;19919;-81
2022/11/18 08:30:47;;;;;;;;;;;7.00;82.90;;;-151.14;100.00;62537.16;5094184;28;19926;-82
2022/11/18 08:33:16;;;;;;;;;;;7.00;82.90;;;-151.14;100.00;62537.16;5093976;28;19919;-81
2022/11/18 08:35:44;;;;;;;;;;;7.00;82.90;;;-151.14;100.00;62537.16;5093760;28;19919;-81
2022/11/18 08:38:12;;;;;;;;;;;7.00;82.90;;;-151.14;100.00;62537.16;5112076;28;19920;-81
2022/11/18 08:40:40;;;;;;;;;;;7.00;82.90;;;-151.14;100.00;62537.16;5093905;28;19920;-81
2022/11/18 08:43:09;;;;;;;;;;;7.00;82.90;;;-151.14;100.00;62537.16;5077247;28;19920;-81
2022/11/18 08:45:37;;;;;;;;;;;7.00;82.90;;;-151.14;100.00;62537.16;5093403;28;19920;-82
2022/11/18 08:48:06;;;;;;;;;;;7.00;82.80;;;-151.14;100.00;62537.16;5093786;28;19928;-81
2022/11/18 08:50:35;;;;;;;;;;;7.00;82.90;;;-151.14;100.00;62537.16;5093841;28;20111;-81
2022/11/18 08:53:03;;;;;;;;;;;7.00;82.90;;;-151.14;100.00;62537.16;5076861;28;19926;-81
2022/11/18 08:55:31;;;;;;;;;;;7.00;82.90;;;-151.14;100.00;62537.16;5093206;28;19926;-81
2022/11/18 08:57:58;;;;;;;;;;;7.00;82.90;;;-151.14;100.00;62537.16;5093781;28;19926;-81
2022/11/18 09:00:26;;;;;;;;;;;7.00;83.00;;;-151.14;100.00;62537.16;5093498;28;19919;-81
2022/11/18 09:02:54;;;;;;;;;;;7.10;83.00;;;-151.14;100.00;62537.16;5093778;28;19920;-81
2022/11/18 09:05:22;;;;;;;;;;;7.10;82.90;;;-151.14;100.00;62537.16;5076283;28;19927;-81
2022/11/18 09:07:51;;;;;;;;;;;7.10;82.90;;;-151.14;100.00;62537.16;5076771;28;19926;-81
2022/11/18 09:10:19;;;;;;;;;;;7.10;82.90;;;-151.14;100.00;62537.16;5093541;28;19920;-81
2022/11/18 09:12:47;;;;;;;;;;;7.10;82.80;;;-151.14;100.00;62537.16;5103342;28;19927;-81
2022/11/18 09:15:15;;;;;;;;;;;7.10;82.80;;;-151.14;100.00;62537.16;5073047;28;19920;-81
2022/11/18 09:17:43;;;;;;;;;;;7.10;82.70;;;-151.14;100.00;62537.16;5073148;28;19920;-81
2022/11/18 09:20:11;;;;;;;;;;;7.10;82.70;;;-151.14;100.00;62537.16;5056672;28;19934;-82
2022/11/18 09:22:39;;;;;;;;;;;7.10;82.70;;;-151.14;100.00;62537.16;5073225;28;19921;-81
2022/11/18 09:25:09;;;;;;;;;;;7.10;82.70;;;-151.14;100.00;62537.16;5072710;28;20140;-81
2022/11/18 09:27:37;;;;;;;;;;;7.20;82.70;;;-151.14;100.00;62537.16;5091133;28;19920;-81
2022/11/18 09:30:06;;;;;;;;;;;7.10;82.70;;;-151.14;100.00;62537.16;5073255;28;19943;-81
2022/11/18 09:32:34;;;;;;;;;;;7.10;82.70;;;-151.14;100.00;62537.16;5091007;28;19927;-81
2022/11/18 09:35:02;;;;;;;;;;;7.10;82.70;;;-151.14;100.00;62537.16;5055714;28;19920;-81
2022/11/18 09:37:30;;;;;;;;;;;7.10;82.70;;;-151.14;100.00;62537.16;5056424;28;20124;-81
2022/11/18 09:39:58;;;;;;;;;;;7.10;82.70;;;-151.14;100.00;62537.16;5056425;28;19926;-81
2022/11/18 09:42:36;;;;;;;;;;;7.20;82.60;;;-151.14;100.00;62537.16;5056543;28;20120;-81
2022/11/18 09:45:13;;;;;;;;;;;7.10;82.60;;;-151.14;100.00;62537.16;5072522;28;19920;-81
2022/11/18 09:47:41;;;;;;;;;;;7.20;82.60;;;-151.14;100.00;62537.16;5073027;28;19920;-81
2022/11/18 09:50:11;;;;;;;;;;;7.20;82.60;;;-151.14;100.00;62537.16;5072831;28;19927;-81
2022/11/18 09:52:40;;;;;;;;;;;7.20;82.60;;;-151.14;100.00;62537.16;5056382;28;20208;-81
2022/11/18 09:55:12;;;;;;;;;;;7.20;82.40;;;-151.14;100.00;62537.16;5055746;28;19921;-81
2022/11/18 09:57:43;;;;;;;;;;;7.20;82.40;;;-151.14;100.00;62537.16;5072962;28;19920;-81
2022/11/18 10:00:14;;;;;;;;;;;7.20;82.40;;;-151.14;100.00;62537.16;5072869;28;19928;-81
2022/11/18 10:02:48;;;;;;;;;;;7.10;82.40;;;-151.14;100.00;62537.16;5090619;28;19920;-81
2022/11/18 10:05:18;;;;;;;;;;;7.20;82.30;;;-151.14;100.00;62537.16;5072244;28;19920;-81
2022/11/18 10:07:56;;;;;;;;;;;7.10;82.30;;;-151.14;100.00;62537.16;5072765;28;19946;-81
2022/11/18 10:10:27;;;;;;;;;;;7.10;82.40;;;-151.14;100.00;62537.16;5092952;28;19920;-81
2022/11/18 10:12:59;;;;;;;;;;;7.10;82.30;;;-151.14;100.00;62537.16;5078345;28;19920;-81
2022/11/18 10:15:29;;;;;;;;;;;7.10;82.50;;;-151.14;100.00;62537.16;5095703;28;19919;-81
2022/11/18 10:18:01;;;;;;;;;;;7.10;82.60;;;-151.14;100.00;62537.16;5114382;28;19920;-81
2022/11/18 10:20:33;;;;;;;;;;;7.10;82.50;;;-151.14;100.00;62537.16;5079436;28;19920;-81
2022/11/18 10:23:05;;;;;;;;;;;7.10;82.60;;;-151.14;100.00;62537.16;5096297;28;19919;-81
2022/11/18 10:25:33;;;;;;;;;;;7.00;82.50;;;-151.14;100.00;62537.16;5112755;28;19919;-81
2022/11/18 10:28:17;;;;;;;;;;;7.00;82.60;;;-151.14;100.00;62537.16;5113105;28;19920;-81
2022/11/18 10:30:46;;;;;;;;;;;7.00;82.70;;;-151.14;100.00;62537.16;5096111;28;19926;-81
2022/11/18 10:33:27;;;;;;;;;;;7.00;82.60;;;-151.14;100.00;62537.16;5096041;28;19926;-81
2022/11/18 10:36:26;;;;;;;;;;;7.00;82.60;;;-151.14;100.00;62537.16;5113803;28;19926;-81
2022/11/18 10:39:11;;;;;;;;;;;7.00;82.60;;;-151.14;100.00;62537.16;4998847;28;19922;-81
2022/11/18 10:41:41;;;;;;;;;;;7.00;82.50;;;-151.14;100.00;62537.16;5087632;28;19926;-81
2022/11/18 10:44:35;;;;;;;;;;;7.00;83.40;;;-151.14;100.00;62537.16;5095713;28;19928;-81
2022/11/18 10:47:30;;;;;;;;;;;7.00;82.60;;;-151.14;100.00;62537.16;5095530;28;19919;-81
2022/11/18 10:49:59;;;;;;;;;;;7.00;82.50;;;-151.14;100.00;62537.16;5049801;28;19919;-81
2022/11/18 10:52:27;;;;;;;;;;;7.00;82.40;;;-151.14;100.00;62537.16;5095948;28;19926;-81
2022/11/18 10:55:21;;;;;;;;;;;7.00;82.40;;;-151.14;100.00;62537.16;5095084;28;19930;-81
2022/11/18 10:57:52;;;;;;;;;;;7.00;82.50;;;-151.14;100.00;62537.16;5112510;28;19926;-81
2022/11/18 11:00:44;;;;;;;;;;;7.00;82.40;;;-151.14;100.00;62537.16;5113681;28;20226;-81
2022/11/18 11:03:32;;;;;;;;;;;7.00;82.50;;;-151.14;100.00;62537.16;5095457;28;20119;-81
2022/11/18 11:06:22;;;;;;;;;;;7.00;82.50;;;-151.14;100.00;62537.16;5078489;28;19920;-81
2022/11/18 11:08:51;;;;;;;;;;;7.10;82.60;;;-151.14;100.00;62537.16;5113508;28;19920;-81
2022/11/18 11:11:24;;;;;;;;;;;7.00;82.60;;;-151.14;100.00;62537.16;5113487;28;20204;-81
2022/11/18 11:14:08;;;;;;;;;;;7.00;82.60;;;-151.14;100.00;62537.16;5113166;28;19919;-81
2022/11/18 11:16:41;;;;;;;;;;;7.00;82.70;;;-151.14;100.00;62537.16;5091868;28;19926;-81
2022/11/18 11:19:10;;;;;;;;;;;7.00;82.70;;;-151.14;100.00;62537.16;5095025;28;19920;-81
2022/11/18 11:21:37;;;;;;;;;;;7.00;82.60;;;-151.14;100.00;62537.16;5112276;28;19920;-81
2022/11/18 11:24:11;;;;;;;;;;;7.00;82.70;;;-151.14;100.00;62537.16;5093861;28;19919;-81
2022/11/18 11:26:44;;;;;;;;;;;7.00;82.70;;;-151.14;100.00;62537.16;5094823;28;19920;-81